createdAt,value
2023-01-22T00:00:10.056Z,1.69
2023-01-22T00:02:37.140Z,1.98
2023-01-22T00:05:05.460Z,2.03
2023-01-22T00:07:32.385Z,2.04
2023-01-22T00:10:00.056Z,2.07
2023-01-22T00:12:27.426Z,2.09
2023-01-22T00:14:54.280Z,2.01
2023-01-22T00:17:21.112Z,2.11
2023-01-22T00:19:47.911Z,2.16
2023-01-22T00:22:14.849Z,2.15
2023-01-22T00:24:41.787Z,2.06
2023-01-22T00:27:08.731Z,2.15
2023-01-22T00:29:35.522Z,2.16
2023-01-22T00:32:02.904Z,2.11
2023-01-22T00:34:30.023Z,1.95
2023-01-22T00:36:56.950Z,2.02
2023-01-22T00:39:23.880Z,2.18
2023-01-22T00:41:50.783Z,2.12
2023-01-22T00:44:17.523Z,1.99
2023-01-22T00:46:44.434Z,2.16
2023-01-22T00:49:12.469Z,2.19
2023-01-22T00:51:39.768Z,2.12
2023-01-22T00:54:08.734Z,2.17
2023-01-22T00:56:35.517Z,1.97
2023-01-22T00:59:03.146Z,2.14
2023-01-22T01:01:29.988Z,2.20
2023-01-22T01:03:56.825Z,2.13
2023-01-22T01:06:23.687Z,2.24
2023-01-22T01:08:50.784Z,2.22
2023-01-22T01:11:23.635Z,2.23
2023-01-22T01:13:52.031Z,2.27
2023-01-22T01:16:31.779Z,2.27
2023-01-22T01:19:05.347Z,2.27
2023-01-22T01:21:32.891Z,2.02
2023-01-22T01:24:00.291Z,2.22
2023-01-22T01:26:27.767Z,2.25
2023-01-22T01:28:54.610Z,2.18
2023-01-22T01:31:24.279Z,2.04
2023-01-22T01:33:51.128Z,2.27
2023-01-22T01:36:40.364Z,2.33
2023-01-22T01:39:11.426Z,2.23
2023-01-22T01:41:38.286Z,2.13
2023-01-22T01:44:27.254Z,1.96
2023-01-22T01:47:24.724Z,1.94
2023-01-22T01:49:53.410Z,2.14
2023-01-22T01:52:21.104Z,2.17
2023-01-22T01:54:52.467Z,2.29
2023-01-22T01:57:25.269Z,2.25
2023-01-22T01:59:52.892Z,2.26
2023-01-22T02:02:20.649Z,2.29
2023-01-22T02:04:49.563Z,2.17
2023-01-22T02:07:16.924Z,2.25
2023-01-22T02:09:43.871Z,2.24
2023-01-22T02:12:10.679Z,2.39
2023-01-22T02:14:43.205Z,2.41
2023-01-22T02:17:15.313Z,2.41
2023-01-22T02:19:43.742Z,2.34
2023-01-22T02:22:21.939Z,2.54
2023-01-22T02:24:49.547Z,2.38
2023-01-22T02:27:16.390Z,2.47
2023-01-22T02:29:43.215Z,2.46
2023-01-22T02:32:10.159Z,2.34
2023-01-22T02:34:37.049Z,2.53
2023-01-22T02:37:04.297Z,2.58
2023-01-22T02:39:31.128Z,2.44
2023-01-22T02:41:58.715Z,2.58
2023-01-22T02:44:25.501Z,2.64
2023-01-22T02:46:52.367Z,2.50
2023-01-22T02:49:19.234Z,2.51
2023-01-22T02:51:46.053Z,2.59
2023-01-22T02:54:12.951Z,2.55
2023-01-22T02:56:39.844Z,2.46
2023-01-22T02:59:06.927Z,2.37
2023-01-22T03:01:33.741Z,2.48
2023-01-22T03:04:22.176Z,2.45
2023-01-22T03:06:49.030Z,2.39
2023-01-22T03:09:17.677Z,2.37
2023-01-22T03:11:46.900Z,2.37
2023-01-22T03:14:32.525Z,2.20
2023-01-22T03:17:19.085Z,2.30
2023-01-22T03:20:04.579Z,2.36
2023-01-22T03:22:31.447Z,2.31
2023-01-22T03:25:00.416Z,2.19
2023-01-22T03:27:30.804Z,2.24
2023-01-22T03:29:58.332Z,2.25
2023-01-22T03:32:25.492Z,2.07
2023-01-22T03:34:53.625Z,2.21
2023-01-22T03:37:20.586Z,2.25
2023-01-22T03:39:47.921Z,2.21
2023-01-22T03:42:14.785Z,2.21
2023-01-22T03:44:41.567Z,2.29
2023-01-22T03:47:08.447Z,2.27
2023-01-22T03:49:35.266Z,2.30
2023-01-22T03:52:02.120Z,2.32
2023-01-22T03:54:28.935Z,2.32
2023-01-22T03:56:55.792Z,2.28
2023-01-22T03:59:22.604Z,2.24
2023-01-22T04:01:50.799Z,2.28
2023-01-22T04:04:17.681Z,2.32
2023-01-22T04:06:44.572Z,2.44
2023-01-22T04:09:11.345Z,2.34
2023-01-22T04:11:38.212Z,2.30
2023-01-22T04:14:05.013Z,2.22
2023-01-22T04:16:31.935Z,2.30
2023-01-22T04:18:58.846Z,2.40
2023-01-22T04:21:25.614Z,2.42
2023-01-22T04:23:52.510Z,2.46
2023-01-22T04:26:19.362Z,2.33
2023-01-22T04:28:46.198Z,2.64
2023-01-22T04:31:13.083Z,2.52
2023-01-22T04:33:39.985Z,2.42
2023-01-22T04:36:06.844Z,2.52
2023-01-22T04:38:33.587Z,2.61
2023-01-22T04:41:00.352Z,2.38
2023-01-22T04:43:27.133Z,2.72
2023-01-22T04:45:54.017Z,2.73
2023-01-22T04:48:20.824Z,2.64
2023-01-22T04:50:47.736Z,2.73
2023-01-22T04:53:14.775Z,2.77
2023-01-22T04:55:42.283Z,2.72
2023-01-22T04:58:09.470Z,2.70
2023-01-22T05:00:36.837Z,2.75
2023-01-22T05:03:04.758Z,2.75
2023-01-22T05:05:33.286Z,2.82
2023-01-22T05:08:00.672Z,2.81
2023-01-22T05:10:27.725Z,2.84
2023-01-22T05:12:54.980Z,2.70
2023-01-22T05:15:24.782Z,2.83
2023-01-22T05:17:53.073Z,2.87
2023-01-22T05:20:21.305Z,2.89
2023-01-22T05:22:48.968Z,2.93
2023-01-22T05:25:15.867Z,2.94
2023-01-22T05:27:42.678Z,2.89
2023-01-22T05:30:11.344Z,2.93
2023-01-22T05:32:38.192Z,2.94
2023-01-22T05:35:06.337Z,2.95
2023-01-22T05:37:33.303Z,2.96
2023-01-22T05:40:00.131Z,2.98
2023-01-22T05:42:27.002Z,2.97
2023-01-22T05:44:53.758Z,3.01
2023-01-22T05:47:20.577Z,2.95
2023-01-22T05:49:47.377Z,3.00
2023-01-22T05:52:14.244Z,3.02
2023-01-22T05:54:41.065Z,3.02
2023-01-22T05:57:08.547Z,2.94
2023-01-22T05:59:35.595Z,3.01
2023-01-22T06:02:02.864Z,3.04
2023-01-22T06:04:29.665Z,2.89
2023-01-22T06:06:56.615Z,3.05
2023-01-22T06:09:24.145Z,3.05
2023-01-22T06:11:51.223Z,3.06
2023-01-22T06:14:18.287Z,3.05
2023-01-22T06:16:45.120Z,3.04
2023-01-22T06:19:12.733Z,3.06
2023-01-22T06:21:40.663Z,3.06
2023-01-22T06:24:07.685Z,3.07
2023-01-22T06:26:34.550Z,3.03
2023-01-22T06:29:02.470Z,3.06
2023-01-22T06:31:29.634Z,2.94
2023-01-22T06:33:56.609Z,3.04
2023-01-22T06:36:23.592Z,3.10
2023-01-22T06:38:50.566Z,3.06
2023-01-22T06:41:17.372Z,3.07
2023-01-22T06:43:44.184Z,3.02
2023-01-22T06:46:11.060Z,3.02
2023-01-22T06:48:38.023Z,3.07
2023-01-22T06:51:05.093Z,3.04
2023-01-22T06:53:31.942Z,2.98
2023-01-22T06:56:02.282Z,3.05
2023-01-22T06:58:29.251Z,3.09
2023-01-22T07:01:01.287Z,3.09
2023-01-22T07:03:28.242Z,3.07
2023-01-22T07:06:00.802Z,3.10
2023-01-22T07:08:29.654Z,3.05
2023-01-22T07:10:56.474Z,3.10
2023-01-22T07:13:23.390Z,2.98
2023-01-22T07:15:50.417Z,3.05
2023-01-22T07:18:19.893Z,3.09
2023-01-22T07:20:47.293Z,3.00
2023-01-22T07:23:14.278Z,3.06
2023-01-22T07:25:41.335Z,2.97
2023-01-22T07:28:08.433Z,3.03
2023-01-22T07:30:35.330Z,3.06
2023-01-22T07:33:03.349Z,2.85
2023-01-22T07:35:30.846Z,2.97
2023-01-22T07:37:59.830Z,2.69
2023-01-22T07:40:27.238Z,2.96
2023-01-22T07:42:55.612Z,2.99
2023-01-22T07:45:26.945Z,3.02
2023-01-22T07:47:57.266Z,3.02
2023-01-22T07:50:27.525Z,2.99
2023-01-22T07:52:54.709Z,3.09
2023-01-22T07:55:22.038Z,3.09
2023-01-22T07:57:48.846Z,2.91
2023-01-22T08:00:16.549Z,3.02
2023-01-22T08:02:43.783Z,3.10
2023-01-22T08:05:14.233Z,3.07
2023-01-22T08:07:41.149Z,2.80
2023-01-22T08:10:09.631Z,2.71
2023-01-22T08:12:38.404Z,3.00
2023-01-22T08:15:05.984Z,2.97
2023-01-22T08:17:32.791Z,2.86
2023-01-22T08:19:59.552Z,2.82
2023-01-22T08:22:26.339Z,2.82
2023-01-22T08:24:54.087Z,2.82
2023-01-22T08:27:22.100Z,2.94
2023-01-22T08:29:49.907Z,3.02
2023-01-22T08:32:18.924Z,3.09
2023-01-22T08:34:45.859Z,2.75
2023-01-22T08:37:13.760Z,3.09
2023-01-22T08:39:40.605Z,3.12
2023-01-22T08:42:07.443Z,3.16
2023-01-22T08:44:34.175Z,3.12
2023-01-22T08:47:01.053Z,3.12
2023-01-22T08:49:30.415Z,3.04
2023-01-22T08:51:57.760Z,3.04
2023-01-22T08:54:26.173Z,3.01
2023-01-22T08:56:53.851Z,3.03
2023-01-22T08:59:20.645Z,3.12
2023-01-22T09:01:47.593Z,3.01
2023-01-22T09:04:14.446Z,2.94
2023-01-22T09:06:41.333Z,2.93
2023-01-22T09:09:08.147Z,3.01
2023-01-22T09:11:35.364Z,3.00
2023-01-22T09:14:02.630Z,2.94
2023-01-22T09:16:32.781Z,2.79
2023-01-22T09:18:59.680Z,2.95
2023-01-22T09:21:26.559Z,2.89
2023-01-22T09:23:53.728Z,2.88
2023-01-22T09:26:21.372Z,2.83
2023-01-22T09:28:48.201Z,2.87
2023-01-22T09:31:15.902Z,2.92
2023-01-22T09:33:43.086Z,2.86
2023-01-22T09:36:16.325Z,2.93
2023-01-22T09:38:43.743Z,2.81
2023-01-22T09:41:26.312Z,2.94
2023-01-22T09:44:24.506Z,3.02
2023-01-22T09:47:05.894Z,3.07
2023-01-22T09:49:47.544Z,3.03
2023-01-22T09:52:14.411Z,3.11
2023-01-22T09:54:42.139Z,3.12
2023-01-22T09:57:29.881Z,3.10
2023-01-22T09:59:58.224Z,3.14
2023-01-22T10:02:42.936Z,3.09
2023-01-22T10:05:36.091Z,3.20
2023-01-22T10:08:23.142Z,3.13
2023-01-22T10:10:51.986Z,3.05
2023-01-22T10:13:32.816Z,3.09
2023-01-22T10:16:00.121Z,3.14
2023-01-22T10:18:53.405Z,3.05
2023-01-22T10:21:34.196Z,3.25
2023-01-22T10:24:01.003Z,3.29
2023-01-22T10:26:54.332Z,3.35
2023-01-22T10:29:33.650Z,3.41
2023-01-22T10:32:06.019Z,3.43
2023-01-22T10:34:36.223Z,3.37
2023-01-22T10:37:14.733Z,3.38
2023-01-22T10:39:46.532Z,3.30
2023-01-22T10:42:17.979Z,3.33
2023-01-22T10:44:45.128Z,3.17
2023-01-22T10:47:27.118Z,3.21
2023-01-22T10:50:07.455Z,3.28
2023-01-22T10:52:50.881Z,3.25
2023-01-22T10:55:37.746Z,3.27
2023-01-22T10:58:08.103Z,3.17
2023-01-22T11:00:50.452Z,3.24
2023-01-22T11:03:24.337Z,3.20
2023-01-22T11:06:04.027Z,3.20
2023-01-22T11:08:50.678Z,3.15
2023-01-22T11:11:24.763Z,3.25
2023-01-22T11:14:11.968Z,3.29
2023-01-22T11:16:40.837Z,3.35
2023-01-22T11:19:21.701Z,3.39
2023-01-22T11:21:57.505Z,3.38
2023-01-22T11:24:38.620Z,3.45
2023-01-22T11:27:14.464Z,3.50
2023-01-22T11:30:07.350Z,3.42
2023-01-22T11:33:21.539Z,3.36
2023-01-22T11:36:04.962Z,3.35
2023-01-22T11:38:57.176Z,3.48
2023-01-22T11:42:15.509Z,3.57
2023-01-22T11:45:21.898Z,3.61
2023-01-22T11:48:32.228Z,3.60
2023-01-22T11:51:13.342Z,3.39
2023-01-22T11:54:03.966Z,3.72
2023-01-22T11:57:15.960Z,3.68
2023-01-22T12:00:23.248Z,3.61
2023-01-22T12:03:07.982Z,3.61
2023-01-22T12:06:40.815Z,3.55
2023-01-22T12:09:41.420Z,3.61
2023-01-22T12:12:28.171Z,3.66
2023-01-22T12:15:24.990Z,3.61
2023-01-22T12:18:27.605Z,3.60
2023-01-22T12:21:31.720Z,3.62
2023-01-22T12:24:13.784Z,3.49
2023-01-22T12:26:56.812Z,3.58
2023-01-22T12:29:49.817Z,3.69
2023-01-22T12:32:19.059Z,3.74
2023-01-22T12:35:01.319Z,3.60
2023-01-22T12:37:42.987Z,3.70
2023-01-22T12:40:25.028Z,3.67
2023-01-22T12:43:06.665Z,3.62
2023-01-22T12:45:52.133Z,3.65
2023-01-22T12:48:51.127Z,3.71
2023-01-22T12:51:51.739Z,3.67
2023-01-22T12:54:27.888Z,3.69
2023-01-22T12:57:23.079Z,3.73
2023-01-22T12:59:56.521Z,3.71
2023-01-22T13:02:30.421Z,3.72
2023-01-22T13:05:11.156Z,3.76
2023-01-22T13:07:41.015Z,3.78
2023-01-22T13:10:20.717Z,3.79
2023-01-22T13:12:51.321Z,3.80
2023-01-22T13:15:37.113Z,3.83
2023-01-22T13:18:19.497Z,3.83
2023-01-22T13:21:09.098Z,3.88
2023-01-22T13:23:42.134Z,3.90
2023-01-22T13:26:24.351Z,3.92
2023-01-22T13:28:51.413Z,3.86
2023-01-22T13:31:18.345Z,3.81
2023-01-22T13:34:01.134Z,3.69
2023-01-22T13:36:28.365Z,3.74
2023-01-22T13:38:59.640Z,3.78
2023-01-22T13:41:34.994Z,3.92
2023-01-22T13:44:04.277Z,3.89
2023-01-22T13:46:31.668Z,3.95
2023-01-22T13:49:12.183Z,3.97
2023-01-22T13:51:40.591Z,3.99
2023-01-22T13:54:08.214Z,4.04
2023-01-22T13:56:35.138Z,3.99
2023-01-22T13:59:20.374Z,4.02
2023-01-22T14:01:48.247Z,3.95
2023-01-22T14:04:39.086Z,3.95
2023-01-22T14:07:06.503Z,3.92
2023-01-22T14:09:38.978Z,3.73
2023-01-22T14:12:19.496Z,3.89
2023-01-22T14:14:46.715Z,3.92
2023-01-22T14:17:28.723Z,3.98
2023-01-22T14:19:56.965Z,4.01
2023-01-22T14:22:24.647Z,4.02
2023-01-22T14:24:52.702Z,4.04
2023-01-22T14:27:47.348Z,4.07
2023-01-22T14:30:17.980Z,4.00
2023-01-22T14:32:45.769Z,3.99
2023-01-22T14:35:18.272Z,3.93
2023-01-22T14:37:45.813Z,3.90
2023-01-22T14:40:15.146Z,3.80
2023-01-22T14:42:42.053Z,3.87
2023-01-22T14:45:10.241Z,3.88
2023-01-22T14:47:37.020Z,3.93
2023-01-22T14:50:04.633Z,3.84
2023-01-22T14:52:31.467Z,3.93
2023-01-22T14:54:58.297Z,3.77
2023-01-22T14:57:25.552Z,3.97
2023-01-22T14:59:52.389Z,4.00
2023-01-22T15:02:19.390Z,4.00
2023-01-22T15:04:46.445Z,3.99
2023-01-22T15:07:13.280Z,3.94
2023-01-22T15:09:40.825Z,3.95
2023-01-22T15:12:08.038Z,3.86
2023-01-22T15:14:34.927Z,4.03
2023-01-22T15:17:01.711Z,4.03
2023-01-22T15:19:32.166Z,4.07
2023-01-22T15:22:03.603Z,3.98
2023-01-22T15:24:30.447Z,3.98
2023-01-22T15:26:57.224Z,3.95
2023-01-22T15:29:24.076Z,4.08
2023-01-22T15:31:50.961Z,4.10
2023-01-22T15:34:18.069Z,4.00
2023-01-22T15:36:45.811Z,4.10
2023-01-22T15:39:12.617Z,4.09
2023-01-22T15:41:40.035Z,4.07
2023-01-22T15:44:07.484Z,4.14
2023-01-22T15:46:39.890Z,4.01
2023-01-22T15:49:08.232Z,3.81
2023-01-22T15:51:36.299Z,3.89
2023-01-22T15:54:06.764Z,3.91
2023-01-22T15:56:36.616Z,3.93
2023-01-22T15:59:05.084Z,3.94
2023-01-22T16:01:32.164Z,4.02
2023-01-22T16:04:00.802Z,4.07
2023-01-22T16:06:30.562Z,4.12
2023-01-22T16:08:59.304Z,4.14
2023-01-22T16:11:30.815Z,4.04
2023-01-22T16:13:59.035Z,4.10
2023-01-22T16:16:32.283Z,4.12
2023-01-22T16:19:01.147Z,4.13
2023-01-22T16:21:28.208Z,4.10
2023-01-22T16:23:58.609Z,4.18
2023-01-22T16:26:30.119Z,4.20
2023-01-22T16:28:59.117Z,4.23
2023-01-22T16:31:30.170Z,4.24
2023-01-22T16:34:07.744Z,4.20
2023-01-22T16:36:34.962Z,4.07
2023-01-22T16:39:01.841Z,4.18
2023-01-22T16:41:32.288Z,4.13
2023-01-22T16:44:12.620Z,3.89
2023-01-22T16:46:42.996Z,3.97
2023-01-22T16:49:19.800Z,3.90
2023-01-22T16:51:53.931Z,4.03
2023-01-22T16:54:29.680Z,4.04
2023-01-22T16:57:02.965Z,4.09
2023-01-22T16:59:32.278Z,4.05
2023-01-22T17:02:01.104Z,4.06
2023-01-22T17:04:28.611Z,4.01
2023-01-22T17:06:58.157Z,4.08
2023-01-22T17:09:28.482Z,4.09
2023-01-22T17:12:01.557Z,4.12
2023-01-22T17:14:30.830Z,4.07
2023-01-22T17:16:58.896Z,4.14
2023-01-22T17:19:26.138Z,4.06
2023-01-22T17:21:55.283Z,4.00
2023-01-22T17:24:22.619Z,4.00
2023-01-22T17:26:53.017Z,4.09
2023-01-22T17:29:20.929Z,4.06
2023-01-22T17:31:48.630Z,4.01
2023-01-22T17:34:16.546Z,3.92
2023-01-22T17:36:43.867Z,4.01
2023-01-22T17:39:15.961Z,3.98
2023-01-22T17:41:44.276Z,3.96
2023-01-22T17:44:12.742Z,3.95
2023-01-22T17:46:40.160Z,3.94
2023-01-22T17:49:06.980Z,3.93
2023-01-22T17:51:35.344Z,3.98
2023-01-22T17:54:03.950Z,4.05
2023-01-22T17:56:34.569Z,4.02
2023-01-22T17:59:04.867Z,3.94
2023-01-22T18:01:33.560Z,3.93
2023-01-22T18:04:05.452Z,3.94
2023-01-22T18:06:33.377Z,3.94
2023-01-22T18:09:00.835Z,3.79
2023-01-22T18:11:30.075Z,4.05
2023-01-22T18:14:04.405Z,3.92
2023-01-22T18:16:36.311Z,4.06
2023-01-22T18:19:06.971Z,3.97
2023-01-22T18:21:35.848Z,3.97
2023-01-22T18:24:04.640Z,4.03
2023-01-22T18:26:31.595Z,4.03
2023-01-22T18:28:59.223Z,4.01
2023-01-22T18:31:28.414Z,4.09
2023-01-22T18:34:02.216Z,4.10
2023-01-22T18:36:34.533Z,4.13
2023-01-22T18:39:11.411Z,4.07
2023-01-22T18:41:39.980Z,4.07
2023-01-22T18:44:08.523Z,3.97
2023-01-22T18:46:36.891Z,3.90
2023-01-22T18:49:08.562Z,3.81
2023-01-22T18:51:35.381Z,3.75
2023-01-22T18:54:05.151Z,3.74
2023-01-22T18:56:31.991Z,3.81
2023-01-22T18:58:59.079Z,3.85
2023-01-22T19:01:33.410Z,3.78
2023-01-22T19:04:05.783Z,3.73
2023-01-22T19:06:36.940Z,3.78
2023-01-22T19:09:14.110Z,3.69
2023-01-22T19:11:43.483Z,3.58
2023-01-22T19:14:15.480Z,3.56
2023-01-22T19:16:48.135Z,3.74
2023-01-22T19:19:16.295Z,3.78
2023-01-22T19:21:47.063Z,3.57
2023-01-22T19:24:17.651Z,3.59
2023-01-22T19:26:46.387Z,3.56
2023-01-22T19:29:19.346Z,3.52
2023-01-22T19:31:48.415Z,3.57
2023-01-22T19:34:23.178Z,3.55
2023-01-22T19:36:56.285Z,3.51
2023-01-22T19:39:25.393Z,3.48
2023-01-22T19:41:52.253Z,3.41
2023-01-22T19:44:19.067Z,3.41
2023-01-22T19:46:45.907Z,3.43
2023-01-22T19:49:13.359Z,3.42
2023-01-22T19:51:40.739Z,3.35
2023-01-22T19:54:08.780Z,3.36
2023-01-22T19:56:37.732Z,3.47
2023-01-22T19:59:11.461Z,3.53
2023-01-22T20:01:39.301Z,3.55
2023-01-22T20:04:11.885Z,3.57
2023-01-22T20:06:39.614Z,3.51
2023-01-22T20:09:06.465Z,3.52
2023-01-22T20:11:33.347Z,3.55
2023-01-22T20:14:00.176Z,3.66
2023-01-22T20:16:29.172Z,3.67
2023-01-22T20:18:58.278Z,3.67
2023-01-22T20:21:26.875Z,3.72
2023-01-22T20:23:53.656Z,3.63
2023-01-22T20:26:21.908Z,3.66
2023-01-22T20:28:49.419Z,3.67
2023-01-22T20:31:25.369Z,3.56
2023-01-22T20:33:54.680Z,3.66
2023-01-22T20:36:22.448Z,3.74
2023-01-22T20:38:52.703Z,3.76
2023-01-22T20:41:21.768Z,3.79
2023-01-22T20:43:49.148Z,3.75
2023-01-22T20:46:25.099Z,3.80
2023-01-22T20:48:53.240Z,3.83
2023-01-22T20:51:25.165Z,3.75
2023-01-22T20:53:53.538Z,3.76
2023-01-22T20:56:31.434Z,3.83
2023-01-22T20:59:11.766Z,3.64
2023-01-22T21:01:39.445Z,3.73
2023-01-22T21:04:06.390Z,3.79
2023-01-22T21:06:35.775Z,3.73
2023-01-22T21:09:04.681Z,3.77
2023-01-22T21:11:34.523Z,3.82
2023-01-22T21:14:04.951Z,3.78
2023-01-22T21:16:35.204Z,3.78
2023-01-22T21:19:12.944Z,3.67
2023-01-22T21:21:39.720Z,3.63
2023-01-22T21:24:07.012Z,3.46
2023-01-22T21:26:33.821Z,3.56
2023-01-22T21:29:10.420Z,3.69
2023-01-22T21:31:37.788Z,3.78
2023-01-22T21:34:07.769Z,3.69
2023-01-22T21:36:38.590Z,3.42
2023-01-22T21:39:09.648Z,3.69
2023-01-22T21:41:38.081Z,3.74
2023-01-22T21:44:37.966Z,3.83
2023-01-22T21:47:05.280Z,3.82
2023-01-22T21:49:34.743Z,3.89
2023-01-22T21:52:05.609Z,3.87
2023-01-22T21:54:39.351Z,3.85
2023-01-22T21:57:07.754Z,3.90
2023-01-22T21:59:36.731Z,3.92
2023-01-22T22:02:04.878Z,3.90
2023-01-22T22:04:31.666Z,3.88
2023-01-22T22:06:58.730Z,3.71
2023-01-22T22:09:28.362Z,3.93
2023-01-22T22:12:00.715Z,3.92
2023-01-22T22:14:27.542Z,3.92
2023-01-22T22:16:54.720Z,3.74
2023-01-22T22:19:22.872Z,3.92
2023-01-22T22:21:50.991Z,3.93
2023-01-22T22:24:19.298Z,3.92
2023-01-22T22:26:46.160Z,3.92
2023-01-22T22:29:12.956Z,3.69
2023-01-22T22:31:39.774Z,3.92
2023-01-22T22:34:06.841Z,3.75
2023-01-22T22:36:34.313Z,3.81
2023-01-22T22:39:02.066Z,3.85
2023-01-22T22:41:33.058Z,3.82
2023-01-22T22:43:59.836Z,3.92
2023-01-22T22:46:32.748Z,3.92
2023-01-22T22:49:01.385Z,3.92
2023-01-22T22:51:32.323Z,3.91
2023-01-22T22:54:02.834Z,3.90
2023-01-22T22:56:30.976Z,3.83
2023-01-22T22:59:00.742Z,3.90
2023-01-22T23:01:28.839Z,3.88
2023-01-22T23:03:55.830Z,3.87
2023-01-22T23:06:29.419Z,3.89
2023-01-22T23:08:58.177Z,3.86
2023-01-22T23:11:32.557Z,3.78
2023-01-22T23:14:03.526Z,3.72
2023-01-22T23:16:34.341Z,3.66
2023-01-22T23:19:05.221Z,3.57
2023-01-22T23:21:35.062Z,3.58
2023-01-22T23:24:02.478Z,3.58
2023-01-22T23:26:30.523Z,3.55
2023-01-22T23:29:03.704Z,3.71
2023-01-22T23:31:33.991Z,3.77
2023-01-22T23:34:03.375Z,3.58
2023-01-22T23:36:34.986Z,3.79
2023-01-22T23:39:03.622Z,3.80
2023-01-22T23:41:30.555Z,3.63
2023-01-22T23:43:57.321Z,3.55
2023-01-22T23:46:27.934Z,3.75
2023-01-22T23:48:57.081Z,3.80
2023-01-22T23:51:24.874Z,3.64
2023-01-22T23:53:53.075Z,3.56
2023-01-22T23:56:27.072Z,3.52
2023-01-22T23:58:55.578Z,3.58
